createdAt,value
2022-11-24T00:02:18.815Z,60.95
2022-11-24T00:10:26.801Z,60.70
2022-11-24T00:18:32.089Z,68.47
2022-11-24T00:26:40.504Z,66.93
2022-11-24T00:34:45.745Z,71.72
2022-11-24T00:42:53.764Z,60.95
2022-11-24T00:51:00.888Z,54.75
2022-11-24T00:59:08.830Z,45.88
2022-11-24T01:07:14.120Z,38.28
2022-11-24T01:15:22.043Z,34.65
2022-11-24T01:23:34.867Z,35.53
2022-11-24T01:31:43.151Z,36.63
2022-11-24T01:39:48.390Z,36.95
2022-11-24T01:47:56.415Z,31.90
2022-11-24T01:56:02.348Z,37.65
2022-11-24T02:04:13.176Z,34.58
2022-11-24T02:12:18.472Z,31.95
2022-11-24T02:20:26.421Z,33.60
2022-11-24T02:28:34.780Z,30.20
2022-11-24T02:36:40.204Z,28.83
2022-11-24T02:44:53.333Z,29.65
2022-11-24T02:52:58.600Z,34.27
2022-11-24T03:01:07.110Z,38.00
2022-11-24T03:09:13.203Z,34.25
2022-11-24T03:17:21.132Z,35.78
2022-11-24T03:25:26.586Z,32.25
2022-11-24T03:33:34.984Z,36.30
2022-11-24T03:41:40.209Z,30.55
2022-11-24T03:49:48.060Z,26.50
2022-11-24T03:57:53.436Z,22.98
2022-11-24T04:06:01.376Z,21.23
2022-11-24T04:14:11.995Z,20.25
2022-11-24T04:22:21.401Z,20.60
2022-11-24T04:30:30.579Z,23.83
2022-11-24T04:39:22.826Z,22.13
2022-11-24T04:47:03.916Z,20.10
2022-11-24T04:55:12.606Z,20.13
2022-11-24T05:03:20.156Z,18.55
2022-11-24T05:11:28.096Z,29.65
2022-11-24T05:19:33.473Z,38.25
2022-11-24T05:27:41.304Z,38.25
2022-11-24T05:35:46.648Z,34.55
2022-11-24T05:43:54.611Z,30.70
2022-11-24T05:52:01.085Z,28.30
2022-11-24T06:00:11.451Z,20.42
2022-11-24T06:08:19.554Z,13.80
2022-11-24T06:16:27.555Z,7.07
2022-11-24T06:24:33.115Z,6.28
2022-11-24T08:34:16.184Z,3.00
2022-11-24T08:42:21.484Z,5.97
2022-11-24T08:50:29.498Z,2.00
2022-11-24T08:58:35.740Z,6.95
2022-11-24T09:06:43.888Z,3.33
2022-11-24T09:14:49.326Z,3.63
2022-11-24T09:22:58.877Z,3.72
2022-11-24T09:31:05.383Z,3.80
2022-11-24T09:39:13.785Z,4.25
2022-11-24T09:47:26.436Z,6.20
2022-11-24T09:55:45.101Z,5.80
2022-11-24T10:30:03.906Z,4.00
2022-11-24T10:38:19.520Z,5.03
2022-11-24T10:46:32.541Z,2.58
2022-11-24T10:54:57.884Z,3.00
2022-11-24T11:03:21.576Z,4.78
2022-11-24T11:11:31.473Z,2.53
2022-11-24T11:19:49.855Z,2.58
2022-11-24T11:28:21.026Z,3.80
2022-11-24T11:36:29.721Z,2.63
2022-11-24T11:44:39.497Z,3.63
2022-11-24T11:53:03.507Z,4.97
2022-11-24T12:01:23.332Z,2.03
2022-11-24T12:09:45.897Z,2.42
2022-11-24T12:17:55.713Z,1.80
2022-11-24T12:26:08.719Z,2.58
2022-11-24T12:34:39.702Z,2.30
2022-11-24T12:42:57.992Z,3.90
2022-11-24T12:51:04.327Z,2.63
2022-11-24T12:59:23.780Z,3.08
2022-11-24T13:07:42.581Z,2.95
2022-11-24T13:16:35.722Z,3.97
2022-11-24T13:24:45.028Z,3.03
2022-11-24T13:33:05.910Z,3.78
2022-11-24T13:41:28.079Z,3.63
2022-11-24T13:49:44.386Z,3.93
2022-11-24T13:57:52.098Z,5.97
2022-11-24T14:06:00.658Z,2.55
2022-11-24T14:14:19.412Z,4.22
2022-11-24T14:22:35.623Z,7.55
2022-11-24T14:30:41.045Z,4.32
2022-11-24T14:38:49.123Z,3.72
2022-11-24T14:47:03.719Z,3.53
2022-11-24T14:55:27.752Z,4.40
2022-11-24T15:03:33.211Z,5.93
2022-11-24T15:11:41.440Z,3.53
2022-11-24T15:19:49.640Z,4.22
2022-11-24T15:27:58.170Z,3.97
2022-11-24T15:36:05.106Z,8.80
2022-11-24T15:44:13.808Z,5.93
2022-11-24T15:52:21.143Z,4.68
2022-11-24T16:00:29.236Z,7.43
2022-11-24T16:08:36.149Z,9.27
2022-11-24T16:16:44.312Z,11.95
2022-11-24T16:24:49.879Z,14.38
2022-11-24T16:32:57.790Z,8.25
2022-11-24T16:41:03.191Z,5.78
2022-11-24T16:49:12.345Z,8.50
2022-11-24T16:57:17.875Z,9.00
2022-11-24T17:05:26.905Z,3.58
2022-11-24T17:13:34.390Z,6.82
2022-11-24T17:21:42.377Z,6.68
2022-11-24T17:29:47.714Z,6.72
2022-11-24T17:37:57.184Z,12.20
2022-11-24T17:46:06.748Z,11.80
2022-11-24T18:02:41.081Z,11.20
2022-11-24T18:10:50.935Z,20.77
2022-11-24T18:19:07.988Z,25.65
2022-11-24T18:27:16.885Z,28.00
2022-11-24T18:35:22.213Z,25.73
2022-11-24T18:43:32.546Z,29.70
2022-11-24T18:51:38.435Z,27.10
2022-11-24T18:59:47.488Z,21.85
2022-11-24T19:07:53.737Z,18.00
2022-11-24T19:16:01.926Z,16.80
2022-11-24T19:24:10.554Z,18.20
2022-11-24T19:32:19.634Z,34.78
2022-11-24T19:40:25.081Z,23.27
2022-11-24T19:48:35.119Z,13.63
2022-11-24T19:56:41.543Z,17.15
2022-11-24T20:04:49.514Z,14.27
2022-11-24T20:12:55.697Z,12.95
2022-11-24T20:21:09.382Z,14.55
2022-11-24T20:29:15.790Z,14.43
2022-11-24T20:37:24.047Z,20.70
2022-11-24T20:45:29.525Z,24.33
2022-11-24T20:53:38.031Z,21.38
2022-11-24T21:01:45.773Z,17.20
2022-11-24T21:09:53.809Z,11.30
2022-11-24T21:17:59.305Z,10.55
2022-11-24T21:26:14.815Z,7.22
2022-11-24T21:34:22.272Z,4.88
2022-11-24T21:42:30.721Z,7.60
2022-11-24T21:50:36.018Z,4.10
2022-11-24T21:58:47.577Z,6.53
2022-11-24T22:06:55.096Z,3.95
2022-11-24T22:15:03.427Z,17.63
2022-11-24T22:23:10.824Z,6.78
2022-11-24T22:31:20.356Z,5.78
2022-11-24T22:39:25.778Z,4.63
2022-11-24T22:47:33.605Z,4.15
2022-11-24T22:55:38.849Z,7.30
2022-11-24T23:03:47.328Z,5.60
2022-11-24T23:11:52.654Z,5.60
2022-11-24T23:20:00.520Z,4.55
2022-11-24T23:28:05.796Z,4.78
2022-11-24T23:36:15.277Z,5.65
2022-11-24T23:44:20.597Z,6.28
2022-11-24T23:52:28.463Z,6.20
